Observations for MANCHESTER INTL, United Kingdom (EGCC)

EGCC 250320Z AUTO 24010G20KT 9999 -RA FEW011/// SCT026/// //////TCU 01/00 Q1012 TEMPO SHRA  
EGCC 250250Z AUTO 22004KT 9999 NCD 00/M01 Q1011 TEMPO SHRA  
EGCC 250220Z AUTO 22006KT 9999 NCD 01/M00 Q1012 NOSIG   
EGCC 250150Z AUTO 23005KT 9999 NCD 01/M00 Q1011 NOSIG   
EGCC 250120Z AUTO VRB03KT 9999 NCD 01/00 Q1011 NOSIG
EGCC 250050Z AUTO 22005KT 9999 FEW025 02/01 Q1011 TEMPO SHRA
EGCC 250020Z AUTO 29004KT 9999 BKN019 BKN028 03/02 Q1011 RERA TEMPO SHRA
EGCC 242350Z AUTO 23006KT 4900 RA SCT018/// BKN024/// BKN028/// //////TCU 03/02 Q1011 TEMPO 9999 NSW
EGCC 242320Z AUTO 21005KT 9999 SCT027/// BKN031/// //////TCU 03/02 Q1011 TEMPO SHRA 
EGCC 242250Z AUTO 19004KT 9999 FEW036/// //////TCU 02/01 Q1011 TEMPO SHRA   
EGCC 242220Z AUTO 23007KT 9999 -RA FEW025 SCT034 BKN042 03/02 Q1011 TEMPO SHRA  
EGCC 242150Z AUTO 20004KT 160V220 9999 FEW037 02/01 Q1011 TEMPO SHRA
EGCC 242120Z AUTO 19003KT 9999 FEW032 02/01 Q1011 TEMPO SHRA
EGCC 242050Z AUTO 17003KT 9999 -RA FEW032 SCT045 03/01 Q1011 TEMPO SHRA 
EGCC 242020Z AUTO VRB03KT 9999 -RA SCT025 BKN047 03/02 Q1011 TEMPO SHRA 
EGCC 241950Z AUTO 28008KT 9999 -RA SCT014/// BKN026/// BKN037/// //////TCU 04/02 Q1011 RERA TEMPO SHRA BKN014   
EGCC 241920Z AUTO 19004KT 9999 -RA SCT025/// BKN036/// //////TCU 03/02 Q1011 TEMPO SHRA 
EGCC 241850Z AUTO 16003KT 9999 SCT031/// //////TCU 03/01 Q1011 TEMPO SHRA   
EGCC 241820Z AUTO 22002KT 9999 //////TCU 03/01 Q1011 NOSIG  
EGCC 241750Z AUTO 31004KT 270V340 9999 FEW040/// BKN048/// //////CB 04/01 Q1011 TEMPO SHRA  
EGCC 241720Z AUTO 32007KT 9999 BKN040/// BKN047/// //////CB 04/01 Q1011 TEMPO 4000 SHRA 
EGCC 241650Z AUTO 20004KT 9999 //////CB 04/01 Q1010 TEMPO 4000 SHRA 
EGCC 241620Z AUTO 21005KT 9999 //////CB 03/00 Q1010 TEMPO SHRA  
EGCC 241550Z AUTO 21005KT 9999 NCD 04/00 Q1010 NOSIG
EGCC 241520Z AUTO 23007KT 9999 NCD 06/01 Q1010 NOSIG
EGCC 241450Z AUTO 24009KT 9999 NCD 07/01 Q1010 NOSIG
EGCC 241420Z AUTO 25011KT 9999 NCD 07/01 Q1010 TEMPO BKN014CB   
EGCC 241350Z AUTO 26012KT 9999 //////CB 07/02 Q1010 TEMPO SHRA  
EGCC 241320Z AUTO 25012KT 9999 //////TCU 07/01 Q1010 NOSIG  
EGCC 241250Z AUTO 26012KT 9999 FEW048/// //////CB 07/01 Q1010 NOSIG 
EGCC 241220Z AUTO 25010KT 9999 SCT041 07/02 Q1010 NOSIG 
EGCC 241150Z AUTO 24009KT 9999 BKN034 BKN041 07/02 Q1010 NOSIG  
EGCC 241120Z AUTO 23008KT 9999 FEW034 BKN040 06/02 Q1010 NOSIG  
EGCC 241050Z AUTO 23008KT 9999 FEW028 BKN034 BKN046 06/02 Q1010 NOSIG   
EGCC 241020Z 21005KT 9999 SCT035 05/02 Q1010 NOSIG  
EGCC 240950Z VRB03KT 9999 SCT039TCU 05/02 Q1010 NOSIG   
EGCC 240920Z VRB03KT 9999 FEW038CB 03/01 Q1009 NOSIG
EGCC 240850Z 22005KT 9999 FEW041CB 02/00 Q1009 NOSIG
EGCC 240820Z 25004KT 9999 FEW040 02/M00 Q1009 TEMPO SHRA
EGCC 240750Z AUTO 24006KT 9999 FEW036 01/M01 Q1008 NOSIG
EGCC 240720Z AUTO VRB03KT 9999 FEW036 01/M00 Q1008 NOSIG
EGCC 240650Z AUTO 22003KT 9999 NCD 01/M01 Q1008 NOSIG   
EGCC 240620Z AUTO 25004KT 9999 NCD 01/M00 Q1007 NOSIG   
EGCC 240550Z AUTO VRB02KT 9999 NCD 01/M00 Q1007 NOSIG   
EGCC 240520Z AUTO 28005KT 9999 FEW045 04/01 Q1007 NOSIG 
EGCC 240450Z AUTO 29005KT 9999 //////TCU 03/01 Q1006 TEMPO SHRA 
EGCC 240420Z AUTO 24006KT 9999 //////TCU 01/M00 Q1006 TEMPO SHRA
EGCC 240350Z AUTO 23005KT 180V240 9999 NCD 01/00 Q1006 NOSIG
EGCC 240320Z AUTO 22003KT 9999 NCD 02/01 Q1006 NOSIG
EGCC 240250Z AUTO VRB01KT 9999 FEW022 SCT030 03/01 Q1005 RERA NOSIG